sensor_id;sensor_type;location;lat;lon;timestamp;P1;durP1;ratioP1;P2;durP2;ratioP2
65831;SDS011;52593;42.648;23.332;2023-07-13T00:00:17;6.73;;;3.60;;
65831;SDS011;52593;42.648;23.332;2023-07-13T00:02:43;9.90;;;3.80;;
65831;SDS011;52593;42.648;23.332;2023-07-13T00:05:08;9.27;;;4.10;;
65831;SDS011;52593;42.648;23.332;2023-07-13T00:07:34;9.98;;;3.97;;
65831;SDS011;52593;42.648;23.332;2023-07-13T00:10:01;7.50;;;3.90;;
65831;SDS011;52593;42.648;23.332;2023-07-13T00:14:53;9.85;;;4.00;;
65831;SDS011;52593;42.648;23.332;2023-07-13T00:17:20;8.80;;;4.10;;
65831;SDS011;52593;42.648;23.332;2023-07-13T00:19:46;10.50;;;3.90;;
65831;SDS011;52593;42.648;23.332;2023-07-13T00:22:12;8.23;;;3.80;;
65831;SDS011;52593;42.648;23.332;2023-07-13T00:24:37;8.13;;;4.17;;
65831;SDS011;52593;42.648;23.332;2023-07-13T00:27:06;8.77;;;3.95;;
65831;SDS011;52593;42.648;23.332;2023-07-13T00:29:33;8.73;;;4.22;;
65831;SDS011;52593;42.648;23.332;2023-07-13T00:31:58;11.50;;;4.00;;
65831;SDS011;52593;42.648;23.332;2023-07-13T00:34:24;10.10;;;4.30;;
65831;SDS011;52593;42.648;23.332;2023-07-13T00:36:49;9.57;;;4.27;;
65831;SDS011;52593;42.648;23.332;2023-07-13T00:39:14;9.67;;;4.03;;
65831;SDS011;52593;42.648;23.332;2023-07-13T00:41:40;8.07;;;4.13;;
65831;SDS011;52593;42.648;23.332;2023-07-13T00:44:08;9.17;;;4.23;;
65831;SDS011;52593;42.648;23.332;2023-07-13T00:46:41;8.00;;;3.65;;
65831;SDS011;52593;42.648;23.332;2023-07-13T00:49:08;11.15;;;4.28;;
65831;SDS011;52593;42.648;23.332;2023-07-13T00:54:14;9.87;;;4.40;;
65831;SDS011;52593;42.648;23.332;2023-07-13T00:56:52;8.55;;;4.40;;
65831;SDS011;52593;42.648;23.332;2023-07-13T00:59:20;8.55;;;4.47;;
65831;SDS011;52593;42.648;23.332;2023-07-13T01:01:48;10.15;;;4.38;;
65831;SDS011;52593;42.648;23.332;2023-07-13T01:04:14;10.00;;;4.53;;
65831;SDS011;52593;42.648;23.332;2023-07-13T01:06:39;9.27;;;4.20;;
65831;SDS011;52593;42.648;23.332;2023-07-13T01:09:06;10.73;;;4.20;;
65831;SDS011;52593;42.648;23.332;2023-07-13T01:11:33;8.85;;;4.65;;
65831;SDS011;52593;42.648;23.332;2023-07-13T01:13:59;10.07;;;4.20;;
65831;SDS011;52593;42.648;23.332;2023-07-13T01:16:27;10.40;;;4.40;;
65831;SDS011;52593;42.648;23.332;2023-07-13T01:18:55;8.25;;;4.10;;
65831;SDS011;52593;42.648;23.332;2023-07-13T01:21:25;9.95;;;4.60;;
65831;SDS011;52593;42.648;23.332;2023-07-13T01:23:52;10.57;;;4.65;;
65831;SDS011;52593;42.648;23.332;2023-07-13T01:26:18;9.10;;;4.60;;
65831;SDS011;52593;42.648;23.332;2023-07-13T01:28:43;9.23;;;4.60;;
65831;SDS011;52593;42.648;23.332;2023-07-13T01:31:09;11.03;;;4.43;;
65831;SDS011;52593;42.648;23.332;2023-07-13T01:33:36;10.75;;;4.32;;
65831;SDS011;52593;42.648;23.332;2023-07-13T01:36:04;9.48;;;5.03;;
65831;SDS011;52593;42.648;23.332;2023-07-13T01:38:31;11.18;;;4.68;;
65831;SDS011;52593;42.648;23.332;2023-07-13T01:40:56;9.70;;;4.67;;
65831;SDS011;52593;42.648;23.332;2023-07-13T01:43:22;10.80;;;4.60;;
65831;SDS011;52593;42.648;23.332;2023-07-13T01:45:47;12.73;;;4.50;;
65831;SDS011;52593;42.648;23.332;2023-07-13T01:48:13;9.00;;;4.40;;
65831;SDS011;52593;42.648;23.332;2023-07-13T01:50:39;9.63;;;4.45;;
65831;SDS011;52593;42.648;23.332;2023-07-13T01:53:04;15.47;;;5.63;;
65831;SDS011;52593;42.648;23.332;2023-07-13T01:55:31;10.18;;;4.45;;
65831;SDS011;52593;42.648;23.332;2023-07-13T01:57:56;8.07;;;4.70;;
65831;SDS011;52593;42.648;23.332;2023-07-13T02:00:22;10.03;;;4.60;;
65831;SDS011;52593;42.648;23.332;2023-07-13T02:02:47;10.87;;;5.03;;
65831;SDS011;52593;42.648;23.332;2023-07-13T02:05:13;10.33;;;4.73;;
65831;SDS011;52593;42.648;23.332;2023-07-13T02:07:39;11.93;;;4.97;;
65831;SDS011;52593;42.648;23.332;2023-07-13T02:10:05;13.07;;;5.30;;
65831;SDS011;52593;42.648;23.332;2023-07-13T02:12:32;11.77;;;5.13;;
65831;SDS011;52593;42.648;23.332;2023-07-13T02:14:58;9.88;;;5.00;;
65831;SDS011;52593;42.648;23.332;2023-07-13T02:17:23;12.13;;;5.40;;
65831;SDS011;52593;42.648;23.332;2023-07-13T02:19:48;10.83;;;4.63;;
65831;SDS011;52593;42.648;23.332;2023-07-13T02:22:14;11.10;;;5.00;;
65831;SDS011;52593;42.648;23.332;2023-07-13T02:24:39;9.50;;;4.73;;
65831;SDS011;52593;42.648;23.332;2023-07-13T02:27:04;11.40;;;5.00;;
65831;SDS011;52593;42.648;23.332;2023-07-13T02:29:30;9.00;;;4.90;;
65831;SDS011;52593;42.648;23.332;2023-07-13T02:31:56;9.13;;;4.40;;
65831;SDS011;52593;42.648;23.332;2023-07-13T02:34:21;10.70;;;4.97;;
65831;SDS011;52593;42.648;23.332;2023-07-13T02:36:46;11.27;;;5.00;;
65831;SDS011;52593;42.648;23.332;2023-07-13T02:39:14;8.93;;;4.70;;
65831;SDS011;52593;42.648;23.332;2023-07-13T02:41:40;9.95;;;5.10;;
65831;SDS011;52593;42.648;23.332;2023-07-13T02:44:05;9.70;;;5.10;;
65831;SDS011;52593;42.648;23.332;2023-07-13T02:46:33;10.80;;;5.07;;
65831;SDS011;52593;42.648;23.332;2023-07-13T02:48:59;10.80;;;5.00;;
65831;SDS011;52593;42.648;23.332;2023-07-13T02:51:25;14.63;;;5.03;;
65831;SDS011;52593;42.648;23.332;2023-07-13T02:53:51;10.40;;;4.53;;
65831;SDS011;52593;42.648;23.332;2023-07-13T02:56:16;9.82;;;4.65;;
65831;SDS011;52593;42.648;23.332;2023-07-13T02:58:41;10.67;;;5.03;;
65831;SDS011;52593;42.648;23.332;2023-07-13T03:01:07;10.17;;;5.00;;
65831;SDS011;52593;42.648;23.332;2023-07-13T03:03:34;10.32;;;5.10;;
65831;SDS011;52593;42.648;23.332;2023-07-13T03:06:00;11.47;;;4.90;;
65831;SDS011;52593;42.648;23.332;2023-07-13T03:08:27;11.77;;;5.07;;
65831;SDS011;52593;42.648;23.332;2023-07-13T03:11:06;10.53;;;5.00;;
65831;SDS011;52593;42.648;23.332;2023-07-13T03:13:33;12.52;;;5.25;;
65831;SDS011;52593;42.648;23.332;2023-07-13T03:15:59;13.68;;;5.50;;
65831;SDS011;52593;42.648;23.332;2023-07-13T03:18:26;11.07;;;4.97;;
65831;SDS011;52593;42.648;23.332;2023-07-13T03:20:52;10.15;;;4.90;;
65831;SDS011;52593;42.648;23.332;2023-07-13T03:23:18;10.68;;;5.28;;
65831;SDS011;52593;42.648;23.332;2023-07-13T03:25:44;13.05;;;5.07;;
65831;SDS011;52593;42.648;23.332;2023-07-13T03:28:10;10.73;;;5.10;;
65831;SDS011;52593;42.648;23.332;2023-07-13T03:30:36;12.68;;;5.32;;
65831;SDS011;52593;42.648;23.332;2023-07-13T03:33:02;12.27;;;5.25;;
65831;SDS011;52593;42.648;23.332;2023-07-13T03:35:27;12.53;;;5.40;;
65831;SDS011;52593;42.648;23.332;2023-07-13T03:37:53;13.37;;;5.70;;
65831;SDS011;52593;42.648;23.332;2023-07-13T03:40:18;13.23;;;5.50;;
65831;SDS011;52593;42.648;23.332;2023-07-13T03:42:44;12.60;;;5.50;;
65831;SDS011;52593;42.648;23.332;2023-07-13T03:45:09;13.40;;;5.93;;
65831;SDS011;52593;42.648;23.332;2023-07-13T03:47:35;10.47;;;5.57;;
65831;SDS011;52593;42.648;23.332;2023-07-13T03:50:00;10.32;;;5.10;;
65831;SDS011;52593;42.648;23.332;2023-07-13T03:52:25;16.00;;;5.60;;
65831;SDS011;52593;42.648;23.332;2023-07-13T03:54:51;10.73;;;5.50;;
65831;SDS011;52593;42.648;23.332;2023-07-13T03:57:17;14.57;;;6.03;;
65831;SDS011;52593;42.648;23.332;2023-07-13T03:59:43;11.20;;;5.68;;
65831;SDS011;52593;42.648;23.332;2023-07-13T04:02:09;12.20;;;6.00;;
65831;SDS011;52593;42.648;23.332;2023-07-13T04:04:35;14.90;;;6.57;;
65831;SDS011;52593;42.648;23.332;2023-07-13T04:07:00;12.27;;;6.43;;
65831;SDS011;52593;42.648;23.332;2023-07-13T04:09:26;12.80;;;6.60;;
65831;SDS011;52593;42.648;23.332;2023-07-13T04:11:51;14.35;;;6.82;;
65831;SDS011;52593;42.648;23.332;2023-07-13T04:14:17;13.83;;;6.40;;
65831;SDS011;52593;42.648;23.332;2023-07-13T04:16:43;14.73;;;7.50;;
65831;SDS011;52593;42.648;23.332;2023-07-13T04:19:09;19.08;;;7.45;;
65831;SDS011;52593;42.648;23.332;2023-07-13T04:21:35;13.60;;;7.82;;
65831;SDS011;52593;42.648;23.332;2023-07-13T04:24:02;12.25;;;7.60;;
65831;SDS011;52593;42.648;23.332;2023-07-13T04:26:28;15.13;;;7.70;;
65831;SDS011;52593;42.648;23.332;2023-07-13T04:28:54;15.73;;;7.63;;
65831;SDS011;52593;42.648;23.332;2023-07-13T04:31:19;19.40;;;7.75;;
65831;SDS011;52593;42.648;23.332;2023-07-13T04:33:45;14.98;;;7.90;;
65831;SDS011;52593;42.648;23.332;2023-07-13T04:36:11;20.23;;;7.43;;
65831;SDS011;52593;42.648;23.332;2023-07-13T04:38:37;13.00;;;7.17;;
65831;SDS011;52593;42.648;23.332;2023-07-13T04:41:04;13.70;;;6.85;;
65831;SDS011;52593;42.648;23.332;2023-07-13T04:43:32;15.40;;;8.00;;
65831;SDS011;52593;42.648;23.332;2023-07-13T04:46:02;16.02;;;8.25;;
65831;SDS011;52593;42.648;23.332;2023-07-13T04:48:29;16.40;;;8.30;;
65831;SDS011;52593;42.648;23.332;2023-07-13T04:50:56;14.87;;;8.97;;
65831;SDS011;52593;42.648;23.332;2023-07-13T04:53:22;21.20;;;8.47;;
65831;SDS011;52593;42.648;23.332;2023-07-13T04:55:49;18.90;;;9.05;;
65831;SDS011;52593;42.648;23.332;2023-07-13T04:58:15;17.02;;;8.25;;
65831;SDS011;52593;42.648;23.332;2023-07-13T05:00:40;19.60;;;8.93;;
65831;SDS011;52593;42.648;23.332;2023-07-13T05:03:05;16.33;;;8.97;;
65831;SDS011;52593;42.648;23.332;2023-07-13T05:05:31;16.75;;;8.35;;
65831;SDS011;52593;42.648;23.332;2023-07-13T05:07:56;16.87;;;8.30;;
65831;SDS011;52593;42.648;23.332;2023-07-13T05:10:22;14.80;;;8.90;;
65831;SDS011;52593;42.648;23.332;2023-07-13T05:12:48;18.58;;;9.05;;
65831;SDS011;52593;42.648;23.332;2023-07-13T05:15:14;17.80;;;9.60;;
65831;SDS011;52593;42.648;23.332;2023-07-13T05:17:39;17.20;;;8.70;;
65831;SDS011;52593;42.648;23.332;2023-07-13T05:20:05;18.23;;;9.68;;
65831;SDS011;52593;42.648;23.332;2023-07-13T05:22:32;18.90;;;8.95;;
65831;SDS011;52593;42.648;23.332;2023-07-13T05:24:57;21.00;;;10.63;;
65831;SDS011;52593;42.648;23.332;2023-07-13T05:27:22;18.07;;;9.87;;
65831;SDS011;52593;42.648;23.332;2023-07-13T05:29:48;21.97;;;9.90;;
65831;SDS011;52593;42.648;23.332;2023-07-13T05:32:14;16.00;;;9.32;;
65831;SDS011;52593;42.648;23.332;2023-07-13T05:34:40;23.53;;;9.80;;
65831;SDS011;52593;42.648;23.332;2023-07-13T05:37:05;23.45;;;9.77;;
65831;SDS011;52593;42.648;23.332;2023-07-13T05:39:31;21.93;;;10.17;;
65831;SDS011;52593;42.648;23.332;2023-07-13T05:41:56;17.20;;;10.17;;
65831;SDS011;52593;42.648;23.332;2023-07-13T05:44:22;23.47;;;10.50;;
65831;SDS011;52593;42.648;23.332;2023-07-13T05:46:47;20.75;;;11.02;;
65831;SDS011;52593;42.648;23.332;2023-07-13T05:49:12;18.90;;;11.10;;
65831;SDS011;52593;42.648;23.332;2023-07-13T05:51:38;21.43;;;10.27;;
65831;SDS011;52593;42.648;23.332;2023-07-13T05:54:03;20.40;;;9.83;;
65831;SDS011;52593;42.648;23.332;2023-07-13T05:56:28;17.47;;;9.87;;
65831;SDS011;52593;42.648;23.332;2023-07-13T05:58:54;17.63;;;9.63;;
65831;SDS011;52593;42.648;23.332;2023-07-13T06:01:21;23.27;;;10.32;;
65831;SDS011;52593;42.648;23.332;2023-07-13T06:03:47;17.37;;;9.77;;
65831;SDS011;52593;42.648;23.332;2023-07-13T06:06:13;18.45;;;10.70;;
65831;SDS011;52593;42.648;23.332;2023-07-13T06:08:38;17.13;;;9.57;;
65831;SDS011;52593;42.648;23.332;2023-07-13T06:11:08;19.77;;;10.00;;
65831;SDS011;52593;42.648;23.332;2023-07-13T06:13:38;18.40;;;9.13;;
65831;SDS011;52593;42.648;23.332;2023-07-13T06:16:04;20.20;;;9.30;;
65831;SDS011;52593;42.648;23.332;2023-07-13T06:18:31;18.63;;;11.68;;
65831;SDS011;52593;42.648;23.332;2023-07-13T06:20:57;17.90;;;8.83;;
65831;SDS011;52593;42.648;23.332;2023-07-13T06:23:23;20.58;;;9.45;;
65831;SDS011;52593;42.648;23.332;2023-07-13T06:25:49;20.17;;;9.48;;
65831;SDS011;52593;42.648;23.332;2023-07-13T06:28:14;20.33;;;9.60;;
65831;SDS011;52593;42.648;23.332;2023-07-13T06:30:39;19.53;;;9.17;;
65831;SDS011;52593;42.648;23.332;2023-07-13T06:33:05;19.90;;;9.93;;
65831;SDS011;52593;42.648;23.332;2023-07-13T06:35:30;16.90;;;9.93;;
65831;SDS011;52593;42.648;23.332;2023-07-13T06:37:56;16.33;;;8.60;;
65831;SDS011;52593;42.648;23.332;2023-07-13T06:40:21;13.90;;;8.43;;
65831;SDS011;52593;42.648;23.332;2023-07-13T06:42:46;17.50;;;9.20;;
65831;SDS011;52593;42.648;23.332;2023-07-13T06:45:12;17.60;;;8.80;;
65831;SDS011;52593;42.648;23.332;2023-07-13T06:47:37;16.70;;;8.77;;
65831;SDS011;52593;42.648;23.332;2023-07-13T06:50:03;28.20;;;11.57;;
65831;SDS011;52593;42.648;23.332;2023-07-13T06:52:29;19.15;;;8.80;;
65831;SDS011;52593;42.648;23.332;2023-07-13T06:54:54;14.20;;;8.63;;
65831;SDS011;52593;42.648;23.332;2023-07-13T06:57:19;17.50;;;8.00;;
65831;SDS011;52593;42.648;23.332;2023-07-13T06:59:45;17.20;;;8.27;;
65831;SDS011;52593;42.648;23.332;2023-07-13T07:02:10;15.60;;;8.40;;
65831;SDS011;52593;42.648;23.332;2023-07-13T07:04:36;14.18;;;8.27;;
65831;SDS011;52593;42.648;23.332;2023-07-13T07:07:02;19.77;;;7.57;;
65831;SDS011;52593;42.648;23.332;2023-07-13T07:09:27;15.90;;;7.53;;
65831;SDS011;52593;42.648;23.332;2023-07-13T07:11:55;13.52;;;7.43;;
65831;SDS011;52593;42.648;23.332;2023-07-13T07:14:20;14.75;;;7.63;;
65831;SDS011;52593;42.648;23.332;2023-07-13T07:16:46;13.93;;;7.87;;
65831;SDS011;52593;42.648;23.332;2023-07-13T07:19:11;16.15;;;7.38;;
65831;SDS011;52593;42.648;23.332;2023-07-13T07:21:37;12.77;;;7.23;;
65831;SDS011;52593;42.648;23.332;2023-07-13T07:24:03;11.97;;;7.00;;
65831;SDS011;52593;42.648;23.332;2023-07-13T07:26:30;16.25;;;8.10;;
65831;SDS011;52593;42.648;23.332;2023-07-13T07:28:55;12.57;;;7.20;;
65831;SDS011;52593;42.648;23.332;2023-07-13T07:31:21;12.57;;;7.10;;
65831;SDS011;52593;42.648;23.332;2023-07-13T07:33:46;13.50;;;7.03;;
65831;SDS011;52593;42.648;23.332;2023-07-13T07:36:11;14.10;;;7.90;;
65831;SDS011;52593;42.648;23.332;2023-07-13T07:38:37;14.23;;;7.83;;
65831;SDS011;52593;42.648;23.332;2023-07-13T07:41:03;16.05;;;7.80;;
65831;SDS011;52593;42.648;23.332;2023-07-13T07:43:29;14.27;;;7.30;;
65831;SDS011;52593;42.648;23.332;2023-07-13T07:45:55;13.30;;;7.32;;
65831;SDS011;52593;42.648;23.332;2023-07-13T07:48:20;13.83;;;7.23;;
65831;SDS011;52593;42.648;23.332;2023-07-13T07:50:45;11.90;;;7.83;;
65831;SDS011;52593;42.648;23.332;2023-07-13T07:53:11;15.77;;;8.30;;
65831;SDS011;52593;42.648;23.332;2023-07-13T07:55:37;15.90;;;7.95;;
65831;SDS011;52593;42.648;23.332;2023-07-13T07:58:04;15.45;;;8.30;;
65831;SDS011;52593;42.648;23.332;2023-07-13T08:00:30;13.32;;;7.22;;
65831;SDS011;52593;42.648;23.332;2023-07-13T08:02:56;17.65;;;7.80;;
65831;SDS011;52593;42.648;23.332;2023-07-13T08:05:23;15.17;;;7.50;;
65831;SDS011;52593;42.648;23.332;2023-07-13T08:07:48;16.42;;;7.95;;
65831;SDS011;52593;42.648;23.332;2023-07-13T08:10:13;14.97;;;8.70;;
65831;SDS011;52593;42.648;23.332;2023-07-13T08:12:39;20.73;;;10.80;;
65831;SDS011;52593;42.648;23.332;2023-07-13T08:15:06;18.25;;;9.85;;
65831;SDS011;52593;42.648;23.332;2023-07-13T08:17:36;15.00;;;7.68;;
65831;SDS011;52593;42.648;23.332;2023-07-13T08:20:01;14.30;;;7.30;;
65831;SDS011;52593;42.648;23.332;2023-07-13T08:22:27;14.20;;;7.50;;
65831;SDS011;52593;42.648;23.332;2023-07-13T08:24:52;15.13;;;7.88;;
65831;SDS011;52593;42.648;23.332;2023-07-13T08:27:21;12.73;;;7.60;;
65831;SDS011;52593;42.648;23.332;2023-07-13T08:29:47;16.47;;;9.43;;
65831;SDS011;52593;42.648;23.332;2023-07-13T08:32:13;16.23;;;7.95;;
65831;SDS011;52593;42.648;23.332;2023-07-13T08:34:39;14.13;;;7.70;;
65831;SDS011;52593;42.648;23.332;2023-07-13T08:37:05;14.87;;;7.70;;
65831;SDS011;52593;42.648;23.332;2023-07-13T08:39:31;17.73;;;8.23;;
65831;SDS011;52593;42.648;23.332;2023-07-13T08:42:01;11.52;;;7.25;;
65831;SDS011;52593;42.648;23.332;2023-07-13T08:47:01;12.70;;;7.53;;
65831;SDS011;52593;42.648;23.332;2023-07-13T08:49:27;14.00;;;7.67;;
65831;SDS011;52593;42.648;23.332;2023-07-13T08:51:54;14.77;;;7.97;;
65831;SDS011;52593;42.648;23.332;2023-07-13T08:54:32;12.55;;;7.70;;
65831;SDS011;52593;42.648;23.332;2023-07-13T08:57:03;15.20;;;8.33;;
65831;SDS011;52593;42.648;23.332;2023-07-13T08:59:37;19.38;;;12.30;;
65831;SDS011;52593;42.648;23.332;2023-07-13T09:05:44;16.20;;;9.00;;
65831;SDS011;52593;42.648;23.332;2023-07-13T09:10:29;14.40;;;8.07;;
65831;SDS011;52593;42.648;23.332;2023-07-13T09:15:32;12.93;;;7.50;;
65831;SDS011;52593;42.648;23.332;2023-07-13T09:18:09;12.77;;;7.72;;
65831;SDS011;52593;42.648;23.332;2023-07-13T09:20:42;16.85;;;8.55;;
65831;SDS011;52593;42.648;23.332;2023-07-13T09:23:17;14.15;;;7.88;;
65831;SDS011;52593;42.648;23.332;2023-07-13T09:25:47;13.70;;;9.10;;
65831;SDS011;52593;42.648;23.332;2023-07-13T09:28:23;18.37;;;9.10;;
65831;SDS011;52593;42.648;23.332;2023-07-13T09:33:31;17.42;;;8.35;;
65831;SDS011;52593;42.648;23.332;2023-07-13T09:35:57;12.35;;;7.95;;
65831;SDS011;52593;42.648;23.332;2023-07-13T09:38:27;17.27;;;8.43;;
65831;SDS011;52593;42.648;23.332;2023-07-13T09:46:58;18.42;;;9.63;;
65831;SDS011;52593;42.648;23.332;2023-07-13T09:49:27;13.67;;;8.80;;
65831;SDS011;52593;42.648;23.332;2023-07-13T09:52:09;16.10;;;9.07;;
65831;SDS011;52593;42.648;23.332;2023-07-13T09:54:37;16.33;;;9.57;;
65831;SDS011;52593;42.648;23.332;2023-07-13T09:57:03;16.05;;;8.85;;
65831;SDS011;52593;42.648;23.332;2023-07-13T09:59:41;15.02;;;8.93;;
65831;SDS011;52593;42.648;23.332;2023-07-13T10:05:07;21.15;;;11.02;;
65831;SDS011;52593;42.648;23.332;2023-07-13T10:07:39;18.30;;;9.80;;
65831;SDS011;52593;42.648;23.332;2023-07-13T10:10:16;18.60;;;8.85;;
65831;SDS011;52593;42.648;23.332;2023-07-13T10:12:44;13.10;;;8.25;;
65831;SDS011;52593;42.648;23.332;2023-07-13T10:15:14;14.57;;;8.23;;
65831;SDS011;52593;42.648;23.332;2023-07-13T10:17:43;14.85;;;6.97;;
65831;SDS011;52593;42.648;23.332;2023-07-13T10:20:09;13.70;;;7.80;;
65831;SDS011;52593;42.648;23.332;2023-07-13T10:25:24;14.70;;;8.10;;
65831;SDS011;52593;42.648;23.332;2023-07-13T10:27:53;14.50;;;7.97;;
65831;SDS011;52593;42.648;23.332;2023-07-13T10:30:24;14.77;;;7.30;;
65831;SDS011;52593;42.648;23.332;2023-07-13T10:32:53;12.73;;;7.68;;
65831;SDS011;52593;42.648;23.332;2023-07-13T10:35:20;17.67;;;7.40;;
65831;SDS011;52593;42.648;23.332;2023-07-13T10:37:55;12.83;;;7.17;;
65831;SDS011;52593;42.648;23.332;2023-07-13T10:40:32;17.98;;;7.25;;
65831;SDS011;52593;42.648;23.332;2023-07-13T10:43:04;12.10;;;6.65;;
65831;SDS011;52593;42.648;23.332;2023-07-13T10:45:38;19.10;;;9.02;;
65831;SDS011;52593;42.648;23.332;2023-07-13T10:48:05;15.88;;;7.10;;
65831;SDS011;52593;42.648;23.332;2023-07-13T10:50:37;16.37;;;6.97;;
65831;SDS011;52593;42.648;23.332;2023-07-13T10:53:18;10.85;;;6.55;;
65831;SDS011;52593;42.648;23.332;2023-07-13T10:58:39;13.05;;;5.00;;
65831;SDS011;52593;42.648;23.332;2023-07-13T11:11:31;20.17;;;9.80;;
65831;SDS011;52593;42.648;23.332;2023-07-13T11:14:00;17.33;;;8.30;;
65831;SDS011;52593;42.648;23.332;2023-07-13T11:16:45;22.52;;;9.02;;
65831;SDS011;52593;42.648;23.332;2023-07-13T11:24:28;11.68;;;5.20;;
65831;SDS011;52593;42.648;23.332;2023-07-13T11:26:55;11.65;;;5.22;;
65831;SDS011;52593;42.648;23.332;2023-07-13T11:31:57;12.90;;;4.97;;
65831;SDS011;52593;42.648;23.332;2023-07-13T11:34:27;14.80;;;5.57;;
65831;SDS011;52593;42.648;23.332;2023-07-13T11:36:56;10.52;;;4.72;;
65831;SDS011;52593;42.648;23.332;2023-07-13T11:39:24;11.02;;;5.43;;
65831;SDS011;52593;42.648;23.332;2023-07-13T11:41:59;9.95;;;5.22;;
65831;SDS011;52593;42.648;23.332;2023-07-13T11:44:29;10.85;;;5.50;;
65831;SDS011;52593;42.648;23.332;2023-07-13T11:46:56;9.93;;;4.90;;
65831;SDS011;52593;42.648;23.332;2023-07-13T11:49:28;13.00;;;4.90;;
65831;SDS011;52593;42.648;23.332;2023-07-13T11:51:55;11.55;;;4.78;;
65831;SDS011;52593;42.648;23.332;2023-07-13T11:56:53;17.27;;;6.40;;
65831;SDS011;52593;42.648;23.332;2023-07-13T11:59:23;28.43;;;7.23;;
65831;SDS011;52593;42.648;23.332;2023-07-13T12:01:50;13.38;;;6.13;;
65831;SDS011;52593;42.648;23.332;2023-07-13T12:04:28;11.80;;;5.97;;
65831;SDS011;52593;42.648;23.332;2023-07-13T12:07:07;10.32;;;5.22;;
65831;SDS011;52593;42.648;23.332;2023-07-13T12:09:40;11.18;;;5.53;;
65831;SDS011;52593;42.648;23.332;2023-07-13T12:12:28;13.60;;;5.27;;
65831;SDS011;52593;42.648;23.332;2023-07-13T12:14:54;13.38;;;5.20;;
65831;SDS011;52593;42.648;23.332;2023-07-13T12:17:21;12.55;;;4.95;;
65831;SDS011;52593;42.648;23.332;2023-07-13T12:19:48;18.80;;;5.30;;
65831;SDS011;52593;42.648;23.332;2023-07-13T12:22:17;10.50;;;5.00;;
65831;SDS011;52593;42.648;23.332;2023-07-13T12:24:44;12.13;;;5.27;;
65831;SDS011;52593;42.648;23.332;2023-07-13T12:27:21;12.52;;;4.90;;
65831;SDS011;52593;42.648;23.332;2023-07-13T12:29:49;9.38;;;5.15;;
65831;SDS011;52593;42.648;23.332;2023-07-13T12:32:18;12.55;;;5.30;;
65831;SDS011;52593;42.648;23.332;2023-07-13T12:34:53;12.33;;;5.30;;
65831;SDS011;52593;42.648;23.332;2023-07-13T12:37:21;17.55;;;6.60;;
65831;SDS011;52593;42.648;23.332;2023-07-13T12:39:47;14.43;;;6.38;;
65831;SDS011;52593;42.648;23.332;2023-07-13T12:42:24;11.80;;;6.13;;
65831;SDS011;52593;42.648;23.332;2023-07-13T12:45:14;22.95;;;8.13;;
65831;SDS011;52593;42.648;23.332;2023-07-13T12:47:47;17.65;;;6.55;;
65831;SDS011;52593;42.648;23.332;2023-07-13T12:50:15;16.23;;;7.20;;
65831;SDS011;52593;42.648;23.332;2023-07-13T12:52:43;17.80;;;7.32;;
65831;SDS011;52593;42.648;23.332;2023-07-13T12:55:14;15.47;;;6.67;;
65831;SDS011;52593;42.648;23.332;2023-07-13T12:57:50;11.90;;;6.88;;
65831;SDS011;52593;42.648;23.332;2023-07-13T13:00:22;15.63;;;7.63;;
65831;SDS011;52593;42.648;23.332;2023-07-13T13:02:50;13.38;;;7.57;;
65831;SDS011;52593;42.648;23.332;2023-07-13T13:05:17;17.10;;;7.63;;
65831;SDS011;52593;42.648;23.332;2023-07-13T13:07:43;14.77;;;7.70;;
65831;SDS011;52593;42.648;23.332;2023-07-13T13:10:14;16.05;;;8.07;;
65831;SDS011;52593;42.648;23.332;2023-07-13T13:12:40;17.63;;;8.07;;
65831;SDS011;52593;42.648;23.332;2023-07-13T13:15:09;17.85;;;7.25;;
65831;SDS011;52593;42.648;23.332;2023-07-13T13:17:36;15.10;;;7.10;;
65831;SDS011;52593;42.648;23.332;2023-07-13T13:20:04;14.45;;;7.18;;
65831;SDS011;52593;42.648;23.332;2023-07-13T13:22:41;14.63;;;7.45;;
65831;SDS011;52593;42.648;23.332;2023-07-13T13:25:09;19.02;;;6.82;;
65831;SDS011;52593;42.648;23.332;2023-07-13T13:27:35;19.00;;;7.20;;
65831;SDS011;52593;42.648;23.332;2023-07-13T13:30:02;15.18;;;6.95;;
65831;SDS011;52593;42.648;23.332;2023-07-13T13:32:27;13.18;;;7.10;;
65831;SDS011;52593;42.648;23.332;2023-07-13T13:34:53;17.00;;;7.60;;
65831;SDS011;52593;42.648;23.332;2023-07-13T13:37:20;17.13;;;7.63;;
65831;SDS011;52593;42.648;23.332;2023-07-13T13:39:47;15.13;;;7.22;;
65831;SDS011;52593;42.648;23.332;2023-07-13T13:42:13;14.73;;;7.37;;
65831;SDS011;52593;42.648;23.332;2023-07-13T13:44:39;15.77;;;9.32;;
65831;SDS011;52593;42.648;23.332;2023-07-13T13:47:07;17.23;;;8.38;;
65831;SDS011;52593;42.648;23.332;2023-07-13T13:49:45;13.47;;;7.03;;
65831;SDS011;52593;42.648;23.332;2023-07-13T13:52:12;12.35;;;7.47;;
65831;SDS011;52593;42.648;23.332;2023-07-13T13:54:38;15.05;;;7.30;;
65831;SDS011;52593;42.648;23.332;2023-07-13T13:57:03;14.70;;;7.43;;
65831;SDS011;52593;42.648;23.332;2023-07-13T13:59:29;12.85;;;7.30;;
65831;SDS011;52593;42.648;23.332;2023-07-13T14:01:57;18.63;;;7.60;;
65831;SDS011;52593;42.648;23.332;2023-07-13T14:04:25;17.63;;;7.40;;
65831;SDS011;52593;42.648;23.332;2023-07-13T14:06:50;12.93;;;7.30;;
65831;SDS011;52593;42.648;23.332;2023-07-13T14:09:16;13.13;;;7.13;;
65831;SDS011;52593;42.648;23.332;2023-07-13T14:11:44;12.45;;;6.57;;
65831;SDS011;52593;42.648;23.332;2023-07-13T14:14:15;14.77;;;6.80;;
65831;SDS011;52593;42.648;23.332;2023-07-13T14:16:44;13.98;;;6.80;;
65831;SDS011;52593;42.648;23.332;2023-07-13T14:19:11;13.93;;;7.70;;
65831;SDS011;52593;42.648;23.332;2023-07-13T14:21:39;15.15;;;7.28;;
65831;SDS011;52593;42.648;23.332;2023-07-13T14:24:05;13.48;;;7.53;;
65831;SDS011;52593;42.648;23.332;2023-07-13T14:26:32;16.27;;;7.67;;
65831;SDS011;52593;42.648;23.332;2023-07-13T14:29:01;14.82;;;7.28;;
65831;SDS011;52593;42.648;23.332;2023-07-13T14:31:27;13.82;;;7.63;;
65831;SDS011;52593;42.648;23.332;2023-07-13T14:33:56;14.73;;;7.57;;
65831;SDS011;52593;42.648;23.332;2023-07-13T14:36:24;12.93;;;7.55;;
65831;SDS011;52593;42.648;23.332;2023-07-13T14:38:57;12.73;;;6.67;;
65831;SDS011;52593;42.648;23.332;2023-07-13T14:41:23;14.75;;;6.95;;
65831;SDS011;52593;42.648;23.332;2023-07-13T14:43:49;11.70;;;7.20;;
65831;SDS011;52593;42.648;23.332;2023-07-13T14:49:03;13.20;;;7.20;;
65831;SDS011;52593;42.648;23.332;2023-07-13T14:51:32;13.10;;;7.55;;
65831;SDS011;52593;42.648;23.332;2023-07-13T14:54:02;18.70;;;8.25;;
65831;SDS011;52593;42.648;23.332;2023-07-13T14:56:29;14.20;;;7.75;;
65831;SDS011;52593;42.648;23.332;2023-07-13T14:58:55;15.13;;;7.17;;
65831;SDS011;52593;42.648;23.332;2023-07-13T15:01:20;13.38;;;7.70;;
65831;SDS011;52593;42.648;23.332;2023-07-13T15:03:48;12.53;;;7.90;;
65831;SDS011;52593;42.648;23.332;2023-07-13T15:06:15;13.82;;;7.20;;
65831;SDS011;52593;42.648;23.332;2023-07-13T15:08:41;15.10;;;6.93;;
65831;SDS011;52593;42.648;23.332;2023-07-13T15:11:10;13.00;;;5.73;;
65831;SDS011;52593;42.648;23.332;2023-07-13T15:13:41;15.32;;;5.95;;
65831;SDS011;52593;42.648;23.332;2023-07-13T15:16:23;11.48;;;5.90;;
65831;SDS011;52593;42.648;23.332;2023-07-13T15:18:50;9.40;;;5.50;;
65831;SDS011;52593;42.648;23.332;2023-07-13T15:21:20;10.55;;;6.20;;